createdAt,value
2024-03-02T00:00:28.794Z,100277.31
2024-03-02T00:02:55.494Z,100272.25
2024-03-02T00:05:23.346Z,100272.06
2024-03-02T00:07:57.659Z,100289.06
2024-03-02T00:10:30.751Z,100286.81
2024-03-02T00:12:58.145Z,100292.47
2024-03-02T00:15:52.777Z,100287.44
2024-03-02T00:18:26.652Z,100285.38
2024-03-02T00:20:57.816Z,100286.19
2024-03-02T00:23:25.810Z,100284.19
2024-03-02T00:25:57.159Z,100289.44
2024-03-02T00:28:25.859Z,100290.22
2024-03-02T00:30:55.195Z,100288.41
2024-03-02T00:33:22.468Z,100285.97
2024-03-02T00:35:50.385Z,100284.78
2024-03-02T00:38:17.449Z,100287.00
2024-03-02T00:40:44.310Z,100282.56
2024-03-02T00:43:52.354Z,100281.56
2024-03-02T00:46:20.562Z,100280.53
2024-03-02T00:48:57.511Z,100276.31
2024-03-02T00:51:26.090Z,100264.59
2024-03-02T00:53:56.934Z,100273.47
2024-03-02T00:56:24.898Z,100283.97
2024-03-02T00:58:53.177Z,100272.69
2024-03-02T01:01:20.920Z,100284.81
2024-03-02T01:03:47.912Z,100268.00
2024-03-02T01:06:15.072Z,100255.47
2024-03-02T01:08:41.609Z,100278.94
2024-03-02T01:11:08.269Z,100250.66
2024-03-02T01:13:35.014Z,100265.00
2024-03-02T01:16:02.319Z,100263.59
2024-03-02T01:18:29.078Z,100269.47
2024-03-02T01:20:58.561Z,100249.66
2024-03-02T01:23:25.412Z,100260.19
2024-03-02T01:25:52.952Z,100267.22
2024-03-02T01:28:20.168Z,100254.09
2024-03-02T01:30:46.684Z,100250.28
2024-03-02T01:33:13.481Z,100254.91
2024-03-02T01:35:40.123Z,100245.63
2024-03-02T01:38:09.537Z,100232.06
2024-03-02T01:40:37.117Z,100234.13
2024-03-02T01:43:05.158Z,100238.78
2024-03-02T01:45:33.113Z,100218.75
2024-03-02T01:47:59.793Z,100229.47
2024-03-02T01:50:32.156Z,100232.50
2024-03-02T01:52:59.898Z,100209.88
2024-03-02T01:55:27.110Z,100233.31
2024-03-02T01:57:55.375Z,100216.75
2024-03-02T02:00:23.028Z,100221.41
2024-03-02T02:02:49.963Z,100207.03
2024-03-02T02:05:17.099Z,100223.59
2024-03-02T02:07:46.420Z,100213.31
2024-03-02T02:10:13.020Z,100213.50
2024-03-02T02:12:39.676Z,100209.88
2024-03-02T02:15:27.599Z,100204.25
2024-03-02T02:17:55.532Z,100194.53
2024-03-02T02:20:22.186Z,100213.50
2024-03-02T02:23:14.943Z,100203.41
2024-03-02T02:25:41.700Z,100207.25
2024-03-02T02:28:08.167Z,100210.66
2024-03-02T02:30:34.910Z,100177.53
2024-03-02T02:33:01.974Z,100199.38
2024-03-02T02:35:29.004Z,100189.88
2024-03-02T02:37:57.825Z,100178.78
2024-03-02T02:40:24.872Z,100203.84
2024-03-02T02:42:53.488Z,100202.03
2024-03-02T02:45:21.913Z,100201.63
2024-03-02T02:47:48.656Z,100200.63
2024-03-02T02:50:15.467Z,100205.88
2024-03-02T02:52:43.556Z,100198.81
2024-03-02T02:55:13.124Z,100201.81
2024-03-02T02:57:44.271Z,100183.28
2024-03-02T03:00:18.295Z,100203.25
2024-03-02T03:02:48.167Z,100201.44
2024-03-02T03:05:15.970Z,100197.00
2024-03-02T03:07:45.056Z,100209.72
2024-03-02T03:10:12.182Z,100153.56
2024-03-02T03:12:39.048Z,100188.31
2024-03-02T03:15:07.847Z,100170.31
2024-03-02T03:17:34.761Z,100152.16
2024-03-02T03:20:02.182Z,100150.53
2024-03-02T03:22:28.718Z,100208.50
2024-03-02T03:24:55.261Z,100213.94
2024-03-02T03:27:21.835Z,100212.34
2024-03-02T03:29:48.314Z,100212.72
2024-03-02T03:32:15.163Z,100213.34
2024-03-02T03:34:42.175Z,100216.97
2024-03-02T03:37:08.773Z,100211.50
2024-03-02T03:39:36.961Z,100211.94
2024-03-02T03:42:03.972Z,100215.94
2024-03-02T03:44:30.565Z,100213.53
2024-03-02T03:46:57.076Z,100216.34
2024-03-02T03:49:23.568Z,100220.22
2024-03-02T03:51:50.555Z,100217.59
2024-03-02T03:54:17.109Z,100217.16
2024-03-02T03:56:43.608Z,100220.59
2024-03-02T03:59:10.097Z,100211.53
2024-03-02T04:01:36.633Z,100217.59
2024-03-02T04:04:04.682Z,100216.38
2024-03-02T04:06:31.542Z,100216.34
2024-03-02T04:08:58.174Z,100224.84
2024-03-02T04:11:24.791Z,100224.25
2024-03-02T04:13:51.454Z,100223.66
2024-03-02T04:16:18.668Z,100166.06
2024-03-02T04:18:45.931Z,100230.94
2024-03-02T04:21:12.752Z,100184.66
2024-03-02T04:23:39.730Z,100198.59
2024-03-02T04:26:06.627Z,100214.56
2024-03-02T04:28:34.308Z,100189.28
2024-03-02T04:31:00.963Z,100238.97
2024-03-02T04:33:27.603Z,100204.44
2024-03-02T04:35:54.240Z,100252.72
2024-03-02T04:38:20.818Z,100213.53
2024-03-02T04:40:47.411Z,100202.63
2024-03-02T04:43:17.484Z,100256.56
2024-03-02T04:45:44.129Z,100231.69
2024-03-02T04:48:10.669Z,100257.59
2024-03-02T04:50:37.117Z,100255.97
2024-03-02T04:53:03.915Z,100252.72
2024-03-02T04:55:30.403Z,100253.97
2024-03-02T04:57:57.253Z,100256.59
2024-03-02T05:00:24.090Z,100261.41
2024-03-02T05:02:50.963Z,100261.84
2024-03-02T05:05:17.645Z,100267.69
2024-03-02T05:07:45.076Z,100250.69
2024-03-02T05:10:15.480Z,100264.22
2024-03-02T05:12:42.535Z,100269.28
2024-03-02T05:15:11.158Z,100264.81
2024-03-02T05:17:38.775Z,100266.25
2024-03-02T05:20:09.244Z,100265.25
2024-03-02T05:22:36.301Z,100271.72
2024-03-02T05:25:03.721Z,100268.28
2024-03-02T05:27:30.372Z,100260.19
2024-03-02T05:29:57.149Z,100267.88
2024-03-02T05:32:23.611Z,100275.75
2024-03-02T05:34:51.764Z,100275.94
2024-03-02T05:37:18.735Z,100277.16
2024-03-02T05:39:45.434Z,100287.88
2024-03-02T05:42:11.950Z,100287.88
2024-03-02T05:44:38.510Z,100283.84
2024-03-02T05:47:06.270Z,100287.28
2024-03-02T05:49:32.741Z,100293.13
2024-03-02T05:51:59.409Z,100277.78
2024-03-02T05:54:26.074Z,100272.09
2024-03-02T05:56:52.667Z,100277.16
2024-03-02T05:59:19.730Z,100264.81
2024-03-02T06:01:48.281Z,100272.53
2024-03-02T06:04:15.464Z,100276.16
2024-03-02T06:09:27.873Z,100272.72
2024-03-02T06:11:55.217Z,100278.56
2024-03-02T06:14:21.978Z,100284.03
2024-03-02T06:16:48.501Z,100264.41
2024-03-02T06:19:15.003Z,100301.19
2024-03-02T06:21:41.984Z,100275.72
2024-03-02T06:24:09.158Z,100295.13
2024-03-02T06:26:36.147Z,100306.81
2024-03-02T06:31:47.860Z,100306.44
2024-03-02T06:34:14.516Z,100282.78
2024-03-02T06:39:27.395Z,100257.75
2024-03-02T06:44:42.973Z,100304.44
2024-03-02T06:47:09.925Z,100276.13
2024-03-02T06:49:37.138Z,100270.47
2024-03-02T06:52:04.197Z,100272.91
2024-03-02T07:27:21.769Z,100297.16
2024-03-02T07:36:40.189Z,100352.75
2024-03-02T08:26:47.496Z,100366.53
2024-03-02T08:45:40.803Z,100420.94
2024-03-02T08:48:09.548Z,100422.59
2024-03-02T08:50:38.778Z,100400.53
2024-03-02T08:53:08.253Z,100425.19
2024-03-02T08:55:35.500Z,100431.50
2024-03-02T08:58:02.673Z,100407.00
2024-03-02T09:00:29.382Z,100420.34
2024-03-02T09:02:55.888Z,100428.22
2024-03-02T09:05:22.495Z,100425.75
2024-03-02T09:07:49.070Z,100426.56
2024-03-02T09:10:17.660Z,100422.34
2024-03-02T09:12:44.383Z,100430.25
2024-03-02T09:15:11.036Z,100433.44
2024-03-02T09:17:37.610Z,100409.34
2024-03-02T09:20:05.340Z,100420.91
2024-03-02T09:22:32.035Z,100423.34
2024-03-02T09:25:00.570Z,100432.88
2024-03-02T09:27:27.314Z,100435.22
2024-03-02T09:29:53.982Z,100418.66
2024-03-02T09:32:20.484Z,100435.44
2024-03-02T09:35:13.134Z,100444.56
2024-03-02T09:37:39.637Z,100450.00
2024-03-02T09:40:14.183Z,100449.19
2024-03-02T09:42:41.660Z,100455.47
2024-03-02T09:46:11.175Z,100452.06
2024-03-02T09:53:39.093Z,100446.66
2024-03-02T09:57:08.113Z,100439.56
2024-03-02T09:59:45.100Z,100437.25
2024-03-02T10:06:31.143Z,100445.38
2024-03-02T10:09:04.089Z,100440.13
2024-03-02T10:11:43.405Z,100441.03
2024-03-02T10:17:50.668Z,100442.81
2024-03-02T10:21:21.174Z,100450.66
2024-03-02T10:24:09.757Z,100445.06
2024-03-02T10:26:43.104Z,100432.59
2024-03-02T10:29:13.334Z,100425.31
2024-03-02T10:31:47.127Z,100439.03
2024-03-02T10:34:14.801Z,100430.09
2024-03-02T10:36:44.452Z,100437.72
2024-03-02T10:39:11.046Z,100432.69
2024-03-02T10:41:39.251Z,100432.34
2024-03-02T10:44:10.379Z,100434.31
2024-03-02T10:46:38.244Z,100427.75
2024-03-02T10:49:08.453Z,100433.13
2024-03-02T10:51:38.035Z,100426.72
2024-03-02T10:54:05.835Z,100423.69
2024-03-02T10:56:34.573Z,100444.03
2024-03-02T10:59:24.026Z,100427.59
2024-03-02T11:01:51.753Z,100436.91
2024-03-02T11:04:20.663Z,100417.31
2024-03-02T11:06:51.078Z,100418.31
2024-03-02T11:09:21.052Z,100431.91
2024-03-02T11:11:56.110Z,100431.44
2024-03-02T11:14:25.523Z,100431.56
2024-03-02T11:16:53.217Z,100424.56
2024-03-02T11:19:20.686Z,100405.69
2024-03-02T11:21:47.905Z,100420.19
2024-03-02T11:24:39.529Z,100424.84
2024-03-02T11:27:13.696Z,100401.03
2024-03-02T11:29:44.533Z,100419.59
2024-03-02T11:32:16.599Z,100424.75
2024-03-02T11:34:46.418Z,100426.22
2024-03-02T11:37:14.882Z,100413.34
2024-03-02T11:39:45.444Z,100413.50
2024-03-02T11:42:15.238Z,100420.09
2024-03-02T11:44:47.623Z,100419.97
2024-03-02T11:47:16.145Z,100423.13
2024-03-02T11:49:47.505Z,100424.34
2024-03-02T11:52:16.313Z,100420.94
2024-03-02T11:54:48.161Z,100423.34
2024-03-02T11:57:16.835Z,100427.34
2024-03-02T11:59:44.578Z,100421.09
2024-03-02T12:02:25.395Z,100421.50
2024-03-02T12:04:52.571Z,100397.38
2024-03-02T12:07:25.524Z,100411.84
2024-03-02T12:10:03.356Z,100415.31
2024-03-02T12:12:30.414Z,100403.50
2024-03-02T12:14:57.283Z,100412.91
2024-03-02T12:17:24.223Z,100392.81
2024-03-02T12:19:50.775Z,100407.34
2024-03-02T12:22:17.672Z,100405.19
2024-03-02T12:24:46.605Z,100402.50
2024-03-02T12:27:14.392Z,100406.69
2024-03-02T12:29:41.169Z,100407.47
2024-03-02T12:32:08.221Z,100389.19
2024-03-02T12:34:35.027Z,100402.00
2024-03-02T12:37:01.910Z,100398.66
2024-03-02T12:39:29.018Z,100409.22
2024-03-02T12:41:57.038Z,100401.66
2024-03-02T12:44:23.619Z,100390.44
2024-03-02T12:46:50.417Z,100409.84
2024-03-02T12:49:17.684Z,100405.63
2024-03-02T12:51:45.069Z,100384.16
2024-03-02T12:54:12.114Z,100402.28
2024-03-02T12:56:39.270Z,100395.47
2024-03-02T12:59:06.737Z,100375.31
2024-03-02T13:01:33.586Z,100391.88
2024-03-02T13:04:00.464Z,100382.91
2024-03-02T13:06:30.554Z,100363.38
2024-03-02T13:08:57.086Z,100370.50
2024-03-02T13:11:25.744Z,100367.09
2024-03-02T13:13:52.727Z,100383.69
2024-03-02T13:16:24.997Z,100370.63
2024-03-02T13:18:57.122Z,100386.88
2024-03-02T13:21:24.107Z,100381.59
2024-03-02T13:23:50.775Z,100355.25
2024-03-02T13:26:18.121Z,100377.66
2024-03-02T13:28:44.763Z,100375.94
2024-03-02T13:31:11.435Z,100380.50
2024-03-02T13:33:38.034Z,100377.56
2024-03-02T13:36:04.991Z,100381.13
2024-03-02T13:38:31.738Z,100381.31
2024-03-02T13:40:58.494Z,100372.69
2024-03-02T13:43:25.523Z,100377.09
2024-03-02T13:45:53.291Z,100371.00
2024-03-02T13:48:20.721Z,100359.41
2024-03-02T13:50:47.764Z,100379.84
2024-03-02T13:53:15.619Z,100373.88
2024-03-02T13:55:43.338Z,100365.56
2024-03-02T13:58:10.918Z,100365.63
2024-03-02T14:00:39.766Z,100366.47
2024-03-02T14:03:09.997Z,100365.19
2024-03-02T14:05:38.140Z,100367.38
2024-03-02T14:08:05.375Z,100357.78
2024-03-02T14:10:33.363Z,100362.78
2024-03-02T14:13:00.010Z,100366.09
2024-03-02T14:15:26.728Z,100375.34
2024-03-02T14:17:55.123Z,100362.56
2024-03-02T14:20:23.629Z,100363.56
2024-03-02T14:22:50.783Z,100375.78
2024-03-02T14:25:18.610Z,100357.72
2024-03-02T14:30:16.860Z,100362.50
2024-03-02T14:32:43.540Z,100375.25
2024-03-02T14:35:11.402Z,100356.31
2024-03-02T14:37:38.570Z,100366.78
2024-03-02T14:40:07.646Z,100375.75
2024-03-02T14:42:34.844Z,100371.56
2024-03-02T14:45:01.588Z,100359.50
2024-03-02T14:47:28.326Z,100348.44
2024-03-02T14:49:54.983Z,100350.91
2024-03-02T14:52:22.023Z,100356.56
2024-03-02T14:54:48.674Z,100361.03
2024-03-02T14:57:15.511Z,100352.22
2024-03-02T14:59:42.290Z,100359.69
2024-03-02T15:02:09.583Z,100338.22
2024-03-02T15:04:36.651Z,100333.59
2024-03-02T15:07:03.320Z,100353.84
2024-03-02T15:09:29.896Z,100351.19
2024-03-02T15:11:56.485Z,100352.91
2024-03-02T15:14:23.216Z,100355.97
2024-03-02T15:16:50.594Z,100349.50
2024-03-02T15:19:17.471Z,100353.19
2024-03-02T15:21:44.016Z,100357.47
2024-03-02T15:24:10.580Z,100354.13
2024-03-02T15:26:37.220Z,100360.59
2024-03-02T15:29:03.969Z,100355.16
2024-03-02T15:31:30.477Z,100339.84
2024-03-02T15:33:58.291Z,100340.34
2024-03-02T15:36:25.443Z,100354.00
2024-03-02T15:38:52.009Z,100355.66
2024-03-02T15:41:18.708Z,100346.75
2024-03-02T15:43:45.535Z,100354.41
2024-03-02T15:46:12.239Z,100364.31
2024-03-02T15:48:38.865Z,100361.34
2024-03-02T15:51:06.880Z,100359.75
2024-03-02T15:53:33.982Z,100364.56
2024-03-02T15:56:00.673Z,100367.53
2024-03-02T15:58:27.503Z,100363.91
2024-03-02T16:00:54.210Z,100367.16
2024-03-02T16:03:21.142Z,100364.63
2024-03-02T16:05:47.823Z,100369.47
2024-03-02T16:08:14.335Z,100370.16
2024-03-02T16:10:41.205Z,100362.28
2024-03-02T16:13:07.853Z,100363.13
2024-03-02T16:15:35.288Z,100367.94
2024-03-02T16:18:03.086Z,100364.63
2024-03-02T16:20:30.114Z,100352.88
2024-03-02T16:22:56.755Z,100366.38
2024-03-02T16:25:26.102Z,100366.53
2024-03-02T16:27:53.870Z,100361.56
2024-03-02T16:30:25.808Z,100365.72
2024-03-02T16:32:52.576Z,100352.16
2024-03-02T16:35:32.040Z,100363.53
2024-03-02T16:37:58.686Z,100351.91
2024-03-02T16:43:10.633Z,100331.81
2024-03-02T16:45:37.361Z,100341.38
2024-03-02T16:48:06.100Z,100307.91
2024-03-02T16:50:33.825Z,100352.84
2024-03-02T16:53:00.876Z,100360.91
2024-03-02T16:55:27.530Z,100365.53
2024-03-02T16:57:54.229Z,100375.41
2024-03-02T17:00:21.014Z,100391.06
2024-03-02T17:02:48.327Z,100389.91
2024-03-02T17:05:15.022Z,100390.03
2024-03-02T17:07:41.936Z,100389.78
2024-03-02T17:10:09.006Z,100402.06
2024-03-02T17:12:36.443Z,100400.94
2024-03-02T17:15:03.543Z,100406.22
2024-03-02T17:17:30.334Z,100406.84
2024-03-02T17:19:56.887Z,100405.84
2024-03-02T17:22:25.022Z,100402.59
2024-03-02T17:24:53.331Z,100396.28
2024-03-02T17:27:20.284Z,100405.22
2024-03-02T17:29:48.620Z,100420.53
2024-03-02T17:32:15.257Z,100430.31
2024-03-02T17:34:42.094Z,100426.25
2024-03-02T17:37:08.740Z,100422.19
2024-03-02T17:39:35.328Z,100432.38
2024-03-02T17:42:02.028Z,100427.25
2024-03-02T17:44:28.571Z,100439.09
2024-03-02T17:46:58.131Z,100435.00
2024-03-02T17:49:25.840Z,100410.19
2024-03-02T17:51:52.585Z,100412.31
2024-03-02T17:54:19.169Z,100426.41
2024-03-02T17:56:45.785Z,100437.00
2024-03-02T17:59:12.289Z,100441.09
2024-03-02T18:01:38.866Z,100439.50
2024-03-02T18:04:09.773Z,100439.50
2024-03-02T18:06:37.330Z,100431.00
2024-03-02T18:09:04.327Z,100439.28
2024-03-02T18:11:31.084Z,100437.72
2024-03-02T18:13:57.656Z,100437.34
2024-03-02T18:16:26.395Z,100432.38
2024-03-02T18:18:53.096Z,100434.78
2024-03-02T18:21:19.801Z,100435.88
2024-03-02T18:23:47.738Z,100437.34
2024-03-02T18:26:14.639Z,100436.19
2024-03-02T18:28:42.235Z,100442.41
2024-03-02T18:31:08.864Z,100437.28
2024-03-02T18:33:35.955Z,100439.84
2024-03-02T18:36:02.752Z,100444.06
2024-03-02T18:38:29.448Z,100418.97
2024-03-02T18:40:55.971Z,100445.53
2024-03-02T18:43:22.475Z,100435.38
2024-03-02T18:45:49.455Z,100444.16
2024-03-02T18:48:16.457Z,100440.59
2024-03-02T18:50:43.316Z,100416.97
2024-03-02T18:53:13.902Z,100432.09
2024-03-02T18:55:41.140Z,100436.81
2024-03-02T18:58:08.396Z,100426.84
2024-03-02T19:00:35.172Z,100438.84
2024-03-02T19:03:02.001Z,100413.16
2024-03-02T19:05:28.708Z,100428.41
2024-03-02T19:07:55.259Z,100402.97
2024-03-02T19:10:21.688Z,100416.97
2024-03-02T19:12:49.033Z,100410.31
2024-03-02T19:15:15.692Z,100414.13
2024-03-02T19:17:42.310Z,100422.44
2024-03-02T19:20:12.079Z,100411.34
2024-03-02T19:25:05.775Z,100415.63
2024-03-02T19:27:32.309Z,100390.78
2024-03-02T19:29:58.862Z,100385.34
2024-03-02T19:32:25.314Z,100412.91
2024-03-02T19:34:51.857Z,100410.84
2024-03-02T19:37:18.545Z,100415.75
2024-03-02T19:39:45.079Z,100413.31
2024-03-02T19:42:11.656Z,100403.41
2024-03-02T19:44:38.244Z,100410.50
2024-03-02T19:47:04.766Z,100411.31
2024-03-02T19:49:37.743Z,100406.28
2024-03-02T19:53:07.176Z,100405.47
2024-03-02T19:56:25.320Z,100400.56
2024-03-02T19:59:54.182Z,100403.59
2024-03-02T20:06:39.165Z,100385.94
2024-03-02T20:10:08.242Z,100379.66
2024-03-02T20:12:52.209Z,100358.91
2024-03-02T20:20:07.239Z,100390.78
2024-03-02T20:23:37.204Z,100397.25
2024-03-02T20:26:06.095Z,100395.66
2024-03-02T20:28:32.788Z,100383.91
2024-03-02T20:30:59.399Z,100388.59
2024-03-02T20:33:26.332Z,100386.38
2024-03-02T20:35:52.824Z,100375.66
2024-03-02T20:38:19.353Z,100382.56
2024-03-02T20:40:47.783Z,100378.28
2024-03-02T20:43:15.740Z,100373.84
2024-03-02T20:45:44.542Z,100371.84
2024-03-02T20:48:11.616Z,100376.50
2024-03-02T20:50:38.116Z,100375.47
2024-03-02T20:53:08.124Z,100375.28
2024-03-02T20:55:35.974Z,100384.19
2024-03-02T20:58:02.864Z,100351.88
2024-03-02T21:00:29.406Z,100369.03
2024-03-02T21:02:56.048Z,100366.38
2024-03-02T21:05:22.622Z,100380.53
2024-03-02T21:07:50.595Z,100364.75
2024-03-02T21:10:17.337Z,100369.44
2024-03-02T21:12:44.132Z,100364.78
2024-03-02T21:15:11.161Z,100376.75
2024-03-02T21:17:37.890Z,100345.22
2024-03-02T21:20:07.809Z,100368.28
2024-03-02T21:22:34.363Z,100365.41
2024-03-02T21:25:03.355Z,100343.59
2024-03-02T21:27:29.881Z,100367.03
2024-03-02T21:29:56.413Z,100370.72
2024-03-02T21:32:22.848Z,100361.03
2024-03-02T21:34:49.470Z,100361.03
2024-03-02T21:37:16.137Z,100357.78
2024-03-02T21:39:46.989Z,100367.09
2024-03-02T21:42:14.151Z,100364.66
2024-03-02T21:44:40.688Z,100371.09
2024-03-02T21:47:07.685Z,100361.59
2024-03-02T21:49:34.577Z,100366.03
2024-03-02T21:53:04.203Z,100361.00
2024-03-02T22:15:04.099Z,100346.25
2024-03-02T22:17:30.684Z,100353.56
2024-03-02T22:19:58.310Z,100349.69
2024-03-02T22:22:24.948Z,100345.47
2024-03-02T22:24:51.487Z,100347.06
2024-03-02T22:27:18.029Z,100325.25
2024-03-02T22:29:44.504Z,100340.22
2024-03-02T22:32:11.004Z,100321.22
2024-03-02T22:34:37.515Z,100336.97
2024-03-02T22:37:04.217Z,100342.03
2024-03-02T22:39:30.735Z,100339.22
2024-03-02T22:41:57.242Z,100341.66
2024-03-02T22:44:23.730Z,100341.84
2024-03-02T22:46:50.271Z,100342.66
2024-03-02T22:49:17.055Z,100340.84
2024-03-02T22:51:43.589Z,100342.66
2024-03-02T22:54:10.075Z,100336.19
2024-03-02T22:56:36.517Z,100309.91
2024-03-02T22:59:03.384Z,100335.16
2024-03-02T23:01:30.238Z,100333.38
2024-03-02T23:03:56.813Z,100329.50
2024-03-02T23:06:24.102Z,100325.69
2024-03-02T23:08:50.547Z,100332.16
2024-03-02T23:11:17.222Z,100334.38
2024-03-02T23:13:43.747Z,100313.56
2024-03-02T23:16:10.286Z,100325.50
2024-03-02T23:18:36.843Z,100329.75
2024-03-02T23:21:04.181Z,100310.34
2024-03-02T23:23:30.588Z,100321.66
2024-03-02T23:25:57.115Z,100323.66
2024-03-02T23:28:23.610Z,100321.47
2024-03-02T23:30:50.232Z,100314.38
2024-03-02T23:33:16.788Z,100311.75
2024-03-02T23:35:43.370Z,100295.16
2024-03-02T23:38:09.900Z,100286.28
2024-03-02T23:41:08.537Z,100303.25
2024-03-02T23:43:36.697Z,100302.06
2024-03-02T23:46:04.630Z,100308.13
2024-03-02T23:48:31.159Z,100294.16
2024-03-02T23:50:57.610Z,100308.53
2024-03-02T23:53:24.122Z,100312.16
2024-03-02T23:55:52.865Z,100309.53
2024-03-02T23:58:20.498Z,100291.53
